Decoded Metar for LFOP (ROUEN in FRANCE) (IATA:URO) | Meteo·Mobile Aviation Weather
aviador You're here:

LFOP Decoded Metar

ROUEN in FRANCE
Report Time2019-07-21 17:30:00
UTC Time2019-07-21 17:59:29
Flight Rules vfr VFR
Wind310° at 03 kt
W.Decomp.*RWY 23: 0.5 kt HW 3.0 kt RCW
RWY 22: 3.0 kt RCW
Visibility9999 m
Phenomena:N/A
Clouds:N/A
Expected CloudBase > 5,200 ft AGL from Temp-Dew spread
CeilingNone
Temp25°C (ISA +11)
Dew Point12°C (44% RH)
AAT24.5°C
QNH1023 hPa
Density Alt1,647 ft
Elevation515 ft
Report Wrong Elevation
Raw Report
METAR LFOP 211730Z AUTO 31003KT 250V360 CAVOK 25/12 Q1023 NOSIG=

Extra information for LFOP:More info

Metar Taf Metar & Taf Last 4 Metars F.Rules Stats Wind Profile Meteogram Temp Stats Airport Information Weather charts Add Link Nearby VenuesMetar ALERT Operation Metar Decoded Social comments